This is the latest recevied weather packets stored in our database for station/object KO5MO-11. If no packets are shown the sender has not sent any weather packets the latest 10 day(s).
| Time | Temp. | Humidity | Pressure | Rain* | Wind** | Luminosity | Snow |
|---|---|---|---|---|---|---|---|
| 1777492236 | 26.11° C | 37% | 1011.6 hPa | - | - | 791 W/m² | - |
| 1777491636 | 24.44° C | 35% | 1011.7 hPa | - | - | 761 W/m² | - |
| 1777491036 | 24.44° C | 35% | 1011.8 hPa | - | - | 767 W/m² | - |
| 1777490436 | 25° C | 34% | 1012.3 hPa | - | - | 778 W/m² | - |
| 1777489836 | 26.67° C | 35% | 1012.3 hPa | - | - | 802 W/m² | - |
| 1777489235 | 24.44° C | 37% | 1012.2 hPa | - | - | 760 W/m² | - |
| 1777488635 | 24.44° C | 35% | 1012.3 hPa | - | - | 760 W/m² | - |
| 1777488036 | 25° C | 34% | 1012.6 hPa | - | - | 773 W/m² | - |
| 1777487677 | 26.11° C | 33% | 1012.7 hPa | - | - | 792 W/m² | - |
| 1777487077 | 25.56° C | 36% | 1012.9 hPa | - | - | 786 W/m² | - |
| 1777486477 | 23.89° C | 35% | 1013 hPa | - | - | 759 W/m² | - |
| 1777485877 | 24.44° C | 34% | 1013 hPa | - | - | 769 W/m² | - |
| 1777485277 | 25.56° C | 33% | 1013.2 hPa | - | - | 787 W/m² | - |
| 1777484677 | 25.56° C | 36% | 1013.4 hPa | - | - | 789 W/m² | - |
| 1777484077 | 23.89° C | 34% | 1013.3 hPa | - | - | 757 W/m² | - |
| 1777483477 | 24.44° C | 34% | 1013.4 hPa | - | - | 762 W/m² | - |
| 1777482877 | 25° C | 33% | 1013.4 hPa | - | - | 777 W/m² | - |
| 1777482277 | 26.11° C | 33% | 1013.4 hPa | - | - | 795 W/m² | - |
| 1777481677 | 24.44° C | 34% | 1013.4 hPa | - | - | 767 W/m² | - |
| 1777481077 | 25° C | 33% | 1013.5 hPa | - | - | 773 W/m² | - |
| 1777480477 | 26.67° C | 32% | 1013.7 hPa | - | - | 800 W/m² | - |
| 1777479877 | 24.44° C | 33% | 1013.5 hPa | - | - | 767 W/m² | - |
| 1777479277 | 25° C | 33% | 1013.4 hPa | - | - | 776 W/m² | - |
| 1777478677 | 25.56° C | 33% | 1013.6 hPa | - | - | 784 W/m² | - |
| 1777478077 | 25.56° C | 33% | 1013.5 hPa | - | - | 782 W/m² | - |
* Rain since midnight (hover to see other rain measurements)
** Current wind speed in m/s (hover to see current wind gust speed)